Time;durP1;ratioP1;P1;durP2;ratioP2;P2;SDS_P1;SDS_P2;PMS_P1;PMS_P2;Temp;Humidity;BMP_temperature;BMP_pressure;BME280_temperature;BME280_humidity;BME280_pressure;Samples;Min_cycle;Max_cycle;Signal;HPM_P1;HPM_P2
2021/10/13 00:02:17;;;;;;;2.60;2.40;;;13.30;99.90;;;;;;4914045;29;20524;-84
2021/10/13 00:04:46;;;;;;;4.00;2.50;;;13.30;99.90;;;;;;4914819;29;20483;-83
2021/10/13 00:07:15;;;;;;;4.33;2.30;;;13.30;99.90;;;;;;4917582;29;20549;-83
2021/10/13 00:09:43;;;;;;;3.20;2.90;;;13.30;99.90;;;;;;4915506;29;20957;-84
2021/10/13 00:12:12;;;;;;;4.10;2.40;;;13.30;99.90;;;;;;4920277;29;20553;-84
2021/10/13 00:14:40;;;;;;;3.77;2.43;;;13.30;99.90;;;;;;4906722;29;20900;-84
2021/10/13 00:17:08;;;;;;;15.00;7.50;;;13.30;99.90;;;;;;4914043;29;20507;-83
2021/10/13 00:19:36;;;;;;;18.97;6.53;;;13.20;99.90;;;;;;4912887;29;20471;-84
2021/10/13 00:22:05;;;;;;;8.00;3.93;;;13.20;99.90;;;;;;4914368;29;20586;-83
2021/10/13 00:24:34;;;;;;;4.50;2.57;;;13.20;99.90;;;;;;4914489;29;20481;-84
2021/10/13 00:27:03;;;;;;;4.70;3.20;;;13.20;99.90;;;;;;4912731;29;20868;-83
2021/10/13 00:29:34;;;;;;;3.30;1.90;;;13.10;99.90;;;;;;4914413;29;20449;-83
2021/10/13 00:32:02;;;;;;;2.33;2.00;;;13.10;99.90;;;;;;4912681;29;20469;-84
2021/10/13 00:34:30;;;;;;;2.97;2.30;;;13.10;99.90;;;;;;4911112;29;20570;-85
2021/10/13 00:36:59;;;;;;;3.00;2.17;;;13.00;99.90;;;;;;4915887;29;20450;-84
2021/10/13 00:39:27;;;;;;;3.47;2.27;;;13.00;99.90;;;;;;4915366;29;20453;-83
2021/10/13 00:41:56;;;;;;;2.73;2.13;;;13.00;99.90;;;;;;4915880;29;20870;-84
2021/10/13 00:44:25;;;;;;;2.53;1.57;;;12.90;99.90;;;;;;4905987;29;20454;-82
2021/10/13 00:46:53;;;;;;;3.40;2.40;;;12.90;99.90;;;;;;4913796;29;20513;-84
2021/10/13 00:49:21;;;;;;;4.20;2.67;;;12.90;99.90;;;;;;4914391;29;20509;-84
2021/10/13 00:51:50;;;;;;;4.90;2.57;;;12.90;99.90;;;;;;4917492;29;20970;-84
2021/10/13 00:54:18;;;;;;;2.43;1.77;;;12.80;99.90;;;;;;4914680;29;21020;-85
2021/10/13 00:56:46;;;;;;;3.43;1.63;;;12.80;99.90;;;;;;4914253;29;20442;-84
2021/10/13 00:59:16;;;;;;;3.23;2.60;;;12.70;99.90;;;;;;4913201;29;21060;-85
2021/10/13 01:01:52;;;;;;;3.20;2.37;;;12.70;99.90;;;;;;4914962;29;20458;-84
2021/10/13 01:04:32;;;;;;;6.80;2.03;;;12.70;99.90;;;;;;4914747;29;20541;-84
2021/10/13 01:07:10;;;;;;;4.50;2.93;;;12.70;99.90;;;;;;4914516;29;20442;-84
2021/10/13 01:09:46;;;;;;;4.63;2.27;;;12.70;99.90;;;;;;4904986;29;20484;-83
2021/10/13 01:12:34;;;;;;;3.90;2.17;;;12.60;99.90;;;;;;4912999;29;20458;-83
2021/10/13 01:15:14;;;;;;;2.73;2.53;;;12.60;99.90;;;;;;4911885;29;20477;-82
2021/10/13 01:17:51;;;;;;;5.60;2.27;;;12.70;99.90;;;;;;4914779;29;20449;-82
2021/10/13 01:20:33;;;;;;;3.10;2.77;;;12.60;99.90;;;;;;4905157;29;20836;-83
2021/10/13 01:23:13;;;;;;;3.30;2.33;;;12.60;99.90;;;;;;4911781;29;20466;-83
2021/10/13 01:25:49;;;;;;;2.50;2.13;;;12.60;99.90;;;;;;4924231;29;20470;-83
2021/10/13 01:28:21;;;;;;;3.40;2.27;;;12.70;99.90;;;;;;4911389;29;20992;-83
2021/10/13 01:30:58;;;;;;;3.10;2.47;;;12.70;99.90;;;;;;4912692;29;20466;-83
2021/10/13 01:33:29;;;;;;;4.87;2.53;;;12.60;99.90;;;;;;4916039;29;20473;-84
2021/10/13 01:36:03;;;;;;;5.40;3.07;;;12.70;99.90;;;;;;4917110;29;20939;-84
2021/10/13 01:38:38;;;;;;;8.77;3.50;;;12.70;99.90;;;;;;4917202;29;20463;-83
2021/10/13 01:41:07;;;;;;;2.50;2.30;;;12.60;99.90;;;;;;4915816;29;20473;-84
2021/10/13 01:43:41;;;;;;;3.40;2.53;;;12.60;99.90;;;;;;4916453;29;20820;-84
2021/10/13 01:46:10;;;;;;;3.03;2.80;;;12.60;99.90;;;;;;4914470;29;20486;-83
2021/10/13 01:48:40;;;;;;;3.57;3.13;;;12.60;99.90;;;;;;4914422;29;21016;-84
2021/10/13 01:51:09;;;;;;;3.80;3.37;;;12.60;99.90;;;;;;4915487;29;20454;-82
2021/10/13 01:53:40;;;;;;;2.30;2.10;;;12.60;99.90;;;;;;4913463;29;20474;-83
2021/10/13 01:56:09;;;;;;;4.30;2.83;;;12.60;99.90;;;;;;4917662;29;20474;-83
2021/10/13 01:58:42;;;;;;;5.57;2.73;;;12.50;99.90;;;;;;4914518;29;20517;-83
2021/10/13 02:01:12;;;;;;;4.03;2.90;;;12.60;99.90;;;;;;4915537;29;20466;-82
2021/10/13 02:03:42;;;;;;;3.70;2.17;;;12.60;99.90;;;;;;4914680;29;20470;-83
2021/10/13 02:06:10;;;;;;;4.57;4.17;;;12.60;99.90;;;;;;4916120;29;20486;-82
2021/10/13 02:08:40;;;;;;;3.70;2.67;;;12.50;99.90;;;;;;4917609;29;20551;-83
2021/10/13 02:11:10;;;;;;;4.33;2.67;;;12.60;99.90;;;;;;4930926;29;20450;-82
2021/10/13 02:13:41;;;;;;;3.03;2.73;;;12.50;99.90;;;;;;4915627;29;20454;-83
2021/10/13 02:16:10;;;;;;;4.73;2.77;;;12.50;99.90;;;;;;4906949;29;20500;-83
2021/10/13 02:18:40;;;;;;;4.73;3.13;;;12.50;99.90;;;;;;4917430;29;20522;-82
2021/10/13 02:21:09;;;;;;;5.17;2.80;;;12.50;99.90;;;;;;4916361;29;20453;-83
2021/10/13 02:23:38;;;;;;;5.53;2.80;;;12.50;99.90;;;;;;4916624;29;20506;-82
2021/10/13 02:26:12;;;;;;;3.70;2.57;;;12.50;99.90;;;;;;4917459;29;20480;-82
2021/10/13 02:28:47;;;;;;;3.60;2.50;;;12.50;99.90;;;;;;4914025;29;20535;-83
2021/10/13 02:31:15;;;;;;;3.50;2.73;;;12.50;99.90;;;;;;4916913;29;20453;-83
2021/10/13 02:33:43;;;;;;;4.50;2.57;;;12.40;99.90;;;;;;4917803;29;20453;-82
2021/10/13 02:36:11;;;;;;;4.43;3.00;;;12.50;99.90;;;;;;4917011;29;20489;-83
2021/10/13 02:38:40;;;;;;;3.77;2.40;;;12.50;99.90;;;;;;4931935;29;20513;-83
2021/10/13 02:41:08;;;;;;;4.07;2.83;;;12.40;99.90;;;;;;4917277;29;20528;-82
2021/10/13 02:43:36;;;;;;;4.97;4.17;;;12.40;99.90;;;;;;4911476;29;20465;-83
2021/10/13 02:46:14;;;;;;;3.60;2.90;;;12.40;99.90;;;;;;4929539;29;20485;-83
2021/10/13 02:48:45;;;;;;;5.50;3.33;;;12.40;99.90;;;;;;4919083;29;20481;-83
2021/10/13 02:51:21;;;;;;;5.87;3.07;;;12.40;99.90;;;;;;4917152;29;20477;-83
2021/10/13 02:53:57;;;;;;;6.13;3.43;;;12.50;99.90;;;;;;4918533;29;20458;-83
2021/10/13 02:56:30;;;;;;;4.50;3.33;;;12.40;99.90;;;;;;4915849;29;20462;-83
2021/10/13 02:59:04;;;;;;;3.00;2.47;;;12.40;99.90;;;;;;4917591;29;20452;-83
2021/10/13 03:01:42;;;;;;;5.97;3.27;;;12.40;99.90;;;;;;4908908;29;20463;-83
2021/10/13 03:04:14;;;;;;;4.43;3.80;;;12.40;99.90;;;;;;4912597;29;20480;-83
2021/10/13 03:06:49;;;;;;;7.97;4.60;;;12.30;99.90;;;;;;4917289;29;20501;-83
2021/10/13 03:09:21;;;;;;;3.47;3.17;;;12.30;99.90;;;;;;4915620;29;20507;-82
2021/10/13 03:11:51;;;;;;;6.60;4.07;;;12.30;99.90;;;;;;4917387;29;20469;-82
2021/10/13 03:14:22;;;;;;;3.30;2.70;;;12.30;99.90;;;;;;4916317;29;20474;-84
2021/10/13 03:16:54;;;;;;;5.63;3.30;;;12.30;99.90;;;;;;4914564;29;20974;-83
2021/10/13 03:19:24;;;;;;;3.80;3.37;;;12.30;99.90;;;;;;4905767;29;20534;-84
2021/10/13 03:21:54;;;;;;;4.30;3.37;;;12.30;99.90;;;;;;4908157;29;20457;-83
2021/10/13 03:24:22;;;;;;;4.63;3.53;;;12.30;99.90;;;;;;4914214;29;20474;-82
2021/10/13 03:26:52;;;;;;;4.00;3.00;;;12.30;99.90;;;;;;4907435;29;20994;-84
2021/10/13 03:29:20;;;;;;;4.67;3.40;;;12.30;99.90;;;;;;4915839;29;20488;-84
2021/10/13 03:31:48;;;;;;;6.00;2.77;;;12.30;99.90;;;;;;4916271;29;20489;-84
2021/10/13 03:34:18;;;;;;;3.90;3.00;;;12.30;99.90;;;;;;4916529;29;20458;-84
2021/10/13 03:36:48;;;;;;;6.10;3.13;;;12.30;99.90;;;;;;4914755;29;20470;-84
2021/10/13 03:39:17;;;;;;;5.10;3.00;;;12.30;99.90;;;;;;4916845;29;20502;-83
2021/10/13 03:41:46;;;;;;;7.53;3.40;;;12.30;99.90;;;;;;4917037;29;20446;-84
2021/10/13 03:44:14;;;;;;;5.10;3.40;;;12.30;99.90;;;;;;4912208;29;20549;-84
2021/10/13 03:46:42;;;;;;;4.60;3.23;;;12.20;99.90;;;;;;4924157;29;20521;-82
2021/10/13 03:49:11;;;;;;;4.87;3.50;;;12.20;99.90;;;;;;4914170;29;20513;-81
2021/10/13 03:51:40;;;;;;;6.77;4.13;;;12.30;99.90;;;;;;4917362;29;20458;-82
2021/10/13 03:54:10;;;;;;;4.97;3.77;;;12.30;99.90;;;;;;4914153;29;20457;-81
2021/10/13 03:56:38;;;;;;;4.43;3.93;;;12.20;99.90;;;;;;4931703;29;20473;-81
2021/10/13 03:59:06;;;;;;;5.70;3.70;;;12.20;99.90;;;;;;4915724;29;21009;-82
2021/10/13 04:01:35;;;;;;;6.80;3.10;;;12.20;99.90;;;;;;4916950;29;20931;-81
2021/10/13 04:04:03;;;;;;;4.30;3.23;;;12.20;99.90;;;;;;4918159;29;20456;-82
2021/10/13 04:06:32;;;;;;;4.07;3.10;;;12.20;99.90;;;;;;4917675;29;20463;-83
2021/10/13 04:09:01;;;;;;;5.50;3.78;;;12.30;99.90;;;;;;4916889;29;20450;-81
2021/10/13 04:11:29;;;;;;;6.50;4.37;;;12.30;99.90;;;;;;4914188;29;20193;-79
2021/10/13 04:13:58;;;;;;;4.63;3.87;;;12.30;99.90;;;;;;4913854;29;20465;-80
2021/10/13 04:16:26;;;;;;;7.77;3.80;;;12.20;99.90;;;;;;4911801;29;20458;-80
2021/10/13 04:18:54;;;;;;;5.03;4.00;;;12.20;99.90;;;;;;4917704;29;20468;-81
2021/10/13 04:21:22;;;;;;;5.20;3.30;;;12.20;99.90;;;;;;4914748;29;20453;-80
2021/10/13 04:23:50;;;;;;;5.47;3.77;;;12.30;99.90;;;;;;4915027;29;20858;-81
2021/10/13 04:26:20;;;;;;;6.87;4.63;;;12.20;99.90;;;;;;4913483;29;20519;-81
2021/10/13 04:28:48;;;;;;;5.40;3.90;;;12.20;99.90;;;;;;4907500;29;20457;-81
2021/10/13 04:31:16;;;;;;;5.50;3.67;;;12.20;99.90;;;;;;4915730;29;21000;-81
2021/10/13 04:33:44;;;;;;;5.03;3.20;;;12.30;99.90;;;;;;4912776;29;20477;-77
2021/10/13 04:36:13;;;;;;;5.33;3.40;;;12.20;99.90;;;;;;4911699;29;21099;-75
2021/10/13 04:38:41;;;;;;;11.97;4.90;;;12.10;99.90;;;;;;4913614;29;20457;-76
2021/10/13 04:41:09;;;;;;;4.50;3.70;;;12.10;99.90;;;;;;4913839;29;20498;-78
2021/10/13 04:43:38;;;;;;;6.73;4.83;;;12.10;99.90;;;;;;4907664;29;20446;-80
2021/10/13 04:46:06;;;;;;;5.30;4.80;;;12.10;99.90;;;;;;4904998;29;20977;-78
2021/10/13 04:48:35;;;;;;;5.87;4.80;;;12.20;99.90;;;;;;4914618;29;20458;-79
2021/10/13 04:51:03;;;;;;;6.30;3.67;;;12.20;99.90;;;;;;4913073;29;20486;-79
2021/10/13 04:53:31;;;;;;;10.80;4.47;;;12.20;99.90;;;;;;4910732;29;20811;-78
2021/10/13 04:55:59;;;;;;;5.70;4.13;;;12.20;99.90;;;;;;4915140;29;20480;-79
2021/10/13 04:58:28;;;;;;;6.10;3.33;;;12.30;99.90;;;;;;4913993;29;20545;-79
2021/10/13 05:00:58;;;;;;;4.70;4.30;;;12.30;99.90;;;;;;4907266;29;20454;-79
2021/10/13 05:03:26;;;;;;;6.57;3.90;;;12.20;99.90;;;;;;4915129;29;20454;-79
2021/10/13 05:05:54;;;;;;;7.30;4.00;;;12.30;99.90;;;;;;4927821;29;21004;-80
2021/10/13 05:08:22;;;;;;;5.27;4.13;;;12.20;99.90;;;;;;4915264;29;20883;-79
2021/10/13 05:10:50;;;;;;;5.40;3.40;;;12.20;99.90;;;;;;4915085;29;20532;-80
2021/10/13 05:13:19;;;;;;;6.33;3.03;;;12.10;99.90;;;;;;4913518;29;20465;-79
2021/10/13 05:15:47;;;;;;;5.10;3.93;;;12.10;99.90;;;;;;4908993;29;20486;-79
2021/10/13 05:18:22;;;;;;;6.13;3.37;;;12.10;99.90;;;;;;4913825;29;20457;-80
2021/10/13 05:20:50;;;;;;;9.10;3.53;;;12.10;99.90;;;;;;4915054;29;20462;-80
2021/10/13 05:23:18;;;;;;;3.50;3.20;;;12.10;99.90;;;;;;4920678;29;20445;-80
2021/10/13 05:25:47;;;;;;;7.27;4.40;;;12.10;99.90;;;;;;4910178;29;20474;-80
2021/10/13 05:28:15;;;;;;;6.87;3.90;;;12.00;99.90;;;;;;4913203;29;20455;-80
2021/10/13 05:30:44;;;;;;;8.40;4.93;;;12.00;99.90;;;;;;4907906;29;20490;-82
2021/10/13 05:33:12;;;;;;;5.07;3.90;;;12.00;99.90;;;;;;4910390;29;20446;-80
2021/10/13 05:35:42;;;;;;;7.43;4.50;;;12.00;99.90;;;;;;4913995;29;20494;-80
2021/10/13 05:38:10;;;;;;;7.20;4.83;;;12.00;99.90;;;;;;4914677;29;20453;-79
2021/10/13 05:40:38;;;;;;;10.03;5.20;;;12.00;99.90;;;;;;4912893;29;20496;-79
2021/10/13 05:43:07;;;;;;;9.40;5.10;;;12.00;99.90;;;;;;4909002;29;20562;-80
2021/10/13 05:45:35;;;;;;;9.00;4.53;;;12.00;99.90;;;;;;4912861;29;20549;-80
2021/10/13 05:48:04;;;;;;;9.60;4.57;;;12.00;99.90;;;;;;4914463;29;20452;-80
2021/10/13 05:50:32;;;;;;;9.00;5.13;;;12.00;99.90;;;;;;4914397;29;20466;-80
2021/10/13 05:53:01;;;;;;;11.77;5.27;;;11.90;99.90;;;;;;4913055;29;20514;-79
2021/10/13 05:55:43;;;;;;;6.03;4.23;;;12.00;99.90;;;;;;4914131;29;20474;-79
2021/10/13 05:58:14;;;;;;;5.23;4.37;;;12.00;99.90;;;;;;4914320;29;20453;-80
2021/10/13 06:00:44;;;;;;;7.53;4.40;;;11.90;99.90;;;;;;4914049;29;20450;-80
2021/10/13 06:03:12;;;;;;;5.47;4.30;;;11.90;99.90;;;;;;4914366;29;20768;-79
2021/10/13 06:05:42;;;;;;;7.60;5.30;;;11.90;99.90;;;;;;4914360;29;20528;-80
2021/10/13 06:08:12;;;;;;;8.07;4.60;;;12.00;99.90;;;;;;4913848;29;20958;-81
2021/10/13 06:10:40;;;;;;;10.70;5.87;;;11.90;99.90;;;;;;4914141;29;20509;-81
2021/10/13 06:13:09;;;;;;;8.70;4.73;;;11.90;99.90;;;;;;4914232;29;20450;-80
2021/10/13 06:15:38;;;;;;;7.60;4.63;;;12.00;99.90;;;;;;4914294;29;20461;-79
2021/10/13 06:18:07;;;;;;;5.60;4.90;;;11.90;99.90;;;;;;4915606;29;20453;-79
2021/10/13 06:20:35;;;;;;;6.77;4.40;;;12.00;99.90;;;;;;4917487;29;20936;-80
2021/10/13 06:23:04;;;;;;;8.83;5.63;;;12.00;99.90;;;;;;4915657;29;20525;-79
2021/10/13 06:25:34;;;;;;;6.57;4.97;;;12.00;99.90;;;;;;4927422;29;20517;-80
2021/10/13 06:28:02;;;;;;;13.13;4.30;;;12.10;99.90;;;;;;4919817;29;20873;-80
2021/10/13 06:30:32;;;;;;;7.87;5.20;;;12.10;99.90;;;;;;4914029;29;21067;-81
2021/10/13 06:33:00;;;;;;;6.97;4.47;;;12.10;99.90;;;;;;4915746;29;20469;-80
2021/10/13 06:35:28;;;;;;;8.03;4.37;;;12.10;99.90;;;;;;4912301;29;20485;-81
2021/10/13 06:37:56;;;;;;;5.23;3.90;;;12.10;99.90;;;;;;4918344;29;20454;-82
2021/10/13 06:40:25;;;;;;;5.63;4.33;;;12.10;99.90;;;;;;4933257;29;20475;-80
2021/10/13 06:42:54;;;;;;;6.77;4.57;;;12.10;99.90;;;;;;4918105;29;20481;-82
2021/10/13 06:45:23;;;;;;;8.23;4.27;;;12.10;99.90;;;;;;4916358;29;21000;-82
2021/10/13 06:47:51;;;;;;;7.57;4.37;;;12.10;99.90;;;;;;4919115;29;21195;-81
2021/10/13 06:50:19;;;;;;;8.00;4.10;;;12.10;99.90;;;;;;4916869;29;20473;-81
2021/10/13 06:52:47;;;;;;;7.83;3.90;;;12.10;99.90;;;;;;4915775;29;20484;-81
2021/10/13 06:55:15;;;;;;;10.33;3.93;;;12.20;99.90;;;;;;4917645;29;20589;-81
2021/10/13 06:57:44;;;;;;;6.10;4.00;;;12.20;99.90;;;;;;4914200;29;20473;-83
2021/10/13 07:00:15;;;;;;;10.53;4.00;;;12.20;99.90;;;;;;4911622;29;20458;-81
2021/10/13 07:02:43;;;;;;;4.00;3.20;;;12.20;99.90;;;;;;4922522;29;20450;-82
2021/10/13 07:05:12;;;;;;;8.27;4.00;;;12.20;99.90;;;;;;4907846;29;20509;-82
2021/10/13 07:07:43;;;;;;;5.20;3.83;;;12.20;99.90;;;;;;4918462;29;20458;-82
2021/10/13 07:10:12;;;;;;;5.30;3.53;;;12.20;99.90;;;;;;4916270;29;20872;-81
2021/10/13 07:12:40;;;;;;;5.80;3.60;;;12.20;99.90;;;;;;4916543;29;20493;-81
2021/10/13 07:15:09;;;;;;;6.40;4.03;;;12.30;99.90;;;;;;4917061;29;20481;-81
2021/10/13 07:17:39;;;;;;;6.97;3.80;;;12.20;99.90;;;;;;4917356;29;20517;-81
2021/10/13 07:20:09;;;;;;;6.77;4.47;;;12.30;99.90;;;;;;4914181;29;20883;-80
2021/10/13 07:22:37;;;;;;;5.80;4.17;;;12.30;99.90;;;;;;4917119;29;20803;-80
2021/10/13 07:25:07;;;;;;;6.57;3.50;;;12.30;99.90;;;;;;4915582;29;20470;-80
2021/10/13 07:27:36;;;;;;;4.63;3.30;;;12.20;99.90;;;;;;4917258;29;20462;-81
2021/10/13 07:30:06;;;;;;;7.70;4.47;;;12.20;99.90;;;;;;4916206;29;20901;-83
2021/10/13 07:32:37;;;;;;;6.50;4.17;;;12.20;99.90;;;;;;4909945;29;20516;-81
2021/10/13 07:35:23;;;;;;;8.93;4.57;;;12.20;99.90;;;;;;4918480;29;21032;-80
2021/10/13 07:37:52;;;;;;;6.83;4.10;;;12.20;99.90;;;;;;4917623;29;20521;-81
2021/10/13 07:40:20;;;;;;;4.07;3.10;;;12.30;99.90;;;;;;4916984;29;20485;-81
2021/10/13 07:42:49;;;;;;;3.37;3.07;;;12.40;99.90;;;;;;4916020;29;20501;-82
2021/10/13 07:45:18;;;;;;;6.40;4.47;;;12.40;99.90;;;;;;4912532;29;21021;-81
2021/10/13 07:47:47;;;;;;;13.87;5.53;;;12.40;99.90;;;;;;4910774;29;20450;-80
2021/10/13 07:50:16;;;;;;;4.57;3.20;;;12.50;99.90;;;;;;4911545;29;20468;-80
2021/10/13 07:52:46;;;;;;;4.93;3.43;;;12.60;99.90;;;;;;4909964;29;20494;-79
2021/10/13 07:55:14;;;;;;;5.37;3.23;;;12.60;99.90;;;;;;4916092;29;20486;-80
2021/10/13 07:57:43;;;;;;;4.70;3.20;;;12.70;99.90;;;;;;4919198;29;20463;-81
2021/10/13 08:00:12;;;;;;;5.30;3.50;;;12.70;99.90;;;;;;4921486;29;20462;-82
2021/10/13 08:02:45;;;;;;;4.03;3.17;;;12.70;99.90;;;;;;4938633;29;20449;-80
2021/10/13 08:05:15;;;;;;;3.80;3.40;;;12.90;99.90;;;;;;4920696;29;20482;-80
2021/10/13 08:07:44;;;;;;;5.33;3.47;;;13.00;99.90;;;;;;4923101;29;20556;-82
2021/10/13 08:10:14;;;;;;;2.57;2.37;;;13.20;99.90;;;;;;4929618;29;20457;-83
2021/10/13 08:12:42;;;;;;;4.03;3.07;;;13.50;99.90;;;;;;4921584;29;20476;-81
2021/10/13 08:15:11;;;;;;;11.57;3.30;;;13.80;99.90;;;;;;4925019;29;20497;-82
2021/10/13 08:17:40;;;;;;;6.80;2.90;;;14.00;99.90;;;;;;4925444;29;20506;-80
2021/10/13 08:20:10;;;;;;;4.37;3.00;;;14.20;99.90;;;;;;4919860;29;20534;-82
2021/10/13 08:22:38;;;;;;;4.77;2.73;;;14.40;99.90;;;;;;4921396;29;20471;-81
2021/10/13 08:25:07;;;;;;;4.53;2.17;;;14.60;99.90;;;;;;4919973;29;20487;-81
2021/10/13 08:27:37;;;;;;;6.33;3.17;;;14.80;99.90;;;;;;4921617;29;20477;-82
2021/10/13 08:30:07;;;;;;;6.83;3.70;;;15.10;99.90;;;;;;4921264;29;20878;-80
2021/10/13 08:32:35;;;;;;;7.73;3.57;;;15.40;99.90;;;;;;4921987;29;20480;-82
2021/10/13 08:35:05;;;;;;;6.67;3.37;;;15.50;99.90;;;;;;4921349;29;20881;-82
2021/10/13 08:37:33;;;;;;;4.90;4.10;;;15.50;99.90;;;;;;4921887;29;20468;-82
2021/10/13 08:40:02;;;;;;;4.33;3.07;;;15.40;99.90;;;;;;4920028;29;20465;-82
2021/10/13 08:42:30;;;;;;;6.47;3.67;;;15.40;99.90;;;;;;4919172;29;20840;-82
2021/10/13 08:45:00;;;;;;;6.30;3.97;;;15.50;99.90;;;;;;4913996;29;20960;-82
2021/10/13 08:47:28;;;;;;;3.87;2.77;;;15.70;99.90;;;;;;4917303;29;20467;-82
2021/10/13 08:49:56;;;;;;;5.17;2.40;;;16.00;99.90;;;;;;4916354;29;20462;-80
2021/10/13 08:52:24;;;;;;;3.77;2.23;;;16.30;99.90;;;;;;4919769;29;20489;-82
2021/10/13 08:54:55;;;;;;;2.17;1.87;;;16.60;99.90;;;;;;4920002;29;20535;-83
2021/10/13 08:57:26;;;;;;;3.30;2.43;;;16.90;99.90;;;;;;4915291;29;21218;-81
2021/10/13 08:59:54;;;;;;;3.00;1.97;;;17.10;99.90;;;;;;4916700;29;20900;-83
2021/10/13 09:02:39;;;;;;;2.83;1.90;;;17.40;99.90;;;;;;4914173;29;20469;-81
2021/10/13 09:05:11;;;;;;;4.77;2.40;;;17.80;99.90;;;;;;4911997;29;20491;-80
2021/10/13 09:07:41;;;;;;;4.40;2.10;;;18.10;99.90;;;;;;4917437;29;20498;-82
2021/10/13 09:10:10;;;;;;;5.50;2.80;;;18.30;99.90;;;;;;4918633;29;20535;-83
2021/10/13 09:12:39;;;;;;;4.43;2.37;;;18.40;99.90;;;;;;4919256;29;20481;-82
2021/10/13 09:15:12;;;;;;;8.20;3.33;;;18.50;99.90;;;;;;4916340;29;20482;-82
2021/10/13 09:17:57;;;;;;;16.17;5.00;;;18.60;99.90;;;;;;4918187;29;20446;-82
2021/10/13 09:20:27;;;;;;;7.03;3.00;;;18.50;99.90;;;;;;4920104;29;20450;-83
2021/10/13 09:23:02;;;;;;;6.13;2.87;;;18.20;99.90;;;;;;4919619;29;20452;-82
2021/10/13 09:25:31;;;;;;;5.27;3.17;;;18.00;99.90;;;;;;4919336;29;20481;-82
2021/10/13 09:28:00;;;;;;;5.43;3.20;;;17.70;99.90;;;;;;4920034;29;20808;-82
2021/10/13 09:30:31;;;;;;;4.83;3.27;;;17.40;99.90;;;;;;4915618;29;20457;-82
2021/10/13 09:33:13;;;;;;;5.27;3.00;;;17.20;99.90;;;;;;4916126;29;20480;-81
2021/10/13 09:35:47;;;;;;;3.50;2.33;;;17.00;99.90;;;;;;4918197;29;21051;-80
2021/10/13 09:38:18;;;;;;;5.93;2.70;;;16.70;99.90;;;;;;4914715;29;20466;-83
2021/10/13 09:40:48;;;;;;;6.07;3.23;;;16.50;99.90;;;;;;4911884;29;20207;-81
2021/10/13 09:43:31;;;;;;;7.53;3.13;;;16.40;99.90;;;;;;4916041;29;20453;-82
2021/10/13 09:46:05;;;;;;;3.20;2.10;;;16.20;99.90;;;;;;4917192;29;20473;-81
2021/10/13 09:48:36;;;;;;;2.80;1.70;;;16.10;99.90;;;;;;4916552;29;20465;-81
2021/10/13 09:51:16;;;;;;;4.60;1.70;;;16.10;99.90;;;;;;4910730;29;20456;-82
2021/10/13 09:53:45;;;;;;;3.97;2.03;;;16.20;99.90;;;;;;4923572;29;21011;-82
2021/10/13 09:56:38;;;;;;;5.83;3.20;;;16.20;99.90;;;;;;4918981;29;20490;-81
2021/10/13 09:59:11;;;;;;;3.37;1.87;;;16.50;99.90;;;;;;4913363;29;20536;-81
2021/10/13 10:01:41;;;;;;;3.00;2.60;;;16.70;99.90;;;;;;4919750;29;20455;-82
2021/10/13 10:04:15;;;;;;;4.73;2.20;;;17.00;99.90;;;;;;4907403;29;20867;-82
2021/10/13 10:06:46;;;;;;;5.30;3.33;;;17.30;99.90;;;;;;4907320;29;21034;-82
2021/10/13 10:09:19;;;;;;;4.53;2.80;;;17.60;99.90;;;;;;4932257;29;20530;-82
2021/10/13 10:11:50;;;;;;;2.23;1.60;;;17.90;99.90;;;;;;4921249;29;20826;-82
2021/10/13 10:14:43;;;;;;;4.90;1.50;;;18.30;99.90;;;;;;4912345;29;20529;-83
2021/10/13 10:17:12;;;;;;;33.03;13.93;;;18.90;99.90;;;;;;4905487;29;20997;-81
2021/10/13 10:19:43;;;;;;;5.43;1.70;;;19.20;99.90;;;;;;4917211;29;20466;-84
2021/10/13 10:22:14;;;;;;;4.77;2.80;;;19.60;99.90;;;;;;4911107;29;20468;-84
2021/10/13 10:24:52;;;;;;;2.80;1.27;;;19.90;99.90;;;;;;4917818;29;20484;-84
2021/10/13 10:27:27;;;;;;;0.50;0.50;;;20.30;99.90;;;;;;4915292;29;20464;-83
2021/10/13 10:30:16;;;;;;;1.30;0.80;;;20.80;99.90;;;;;;4915863;29;20475;-84
2021/10/13 10:32:47;;;;;;;0.87;0.80;;;21.20;99.90;;;;;;4919144;29;20466;-84
2021/10/13 10:35:18;;;;;;;4.10;0.80;;;21.60;99.90;;;;;;4911618;29;20503;-83
2021/10/13 10:37:48;;;;;;;1.00;0.70;;;21.60;99.90;;;;;;4916323;29;20504;-83
2021/10/13 10:40:21;;;;;;;1.90;0.73;;;21.40;99.90;;;;;;4917884;29;20460;-83
2021/10/13 10:42:59;;;;;;;4.73;0.90;;;20.90;99.90;;;;;;4919036;29;20450;-83
2021/10/13 10:45:30;;;;;;;2.30;0.80;;;20.50;99.90;;;;;;4917991;29;20479;-82
2021/10/13 10:48:10;;;;;;;1.13;1.00;;;20.00;99.90;;;;;;4919826;29;20464;-81
2021/10/13 10:50:46;;;;;;;3.10;0.80;;;19.70;99.90;;;;;;4917309;29;20457;-83
2021/10/13 10:53:37;;;;;;;2.43;1.50;;;19.40;99.90;;;;;;4910325;29;20481;-82
2021/10/13 10:56:25;;;;;;;1.30;1.10;;;19.10;99.90;;;;;;4929509;29;20472;-83
2021/10/13 10:59:06;;;;;;;2.30;1.23;;;18.80;99.90;;;;;;4918126;29;21035;-83
2021/10/13 11:01:35;;;;;;;1.70;1.00;;;18.50;99.90;;;;;;4901973;29;20466;-83
2021/10/13 11:04:09;;;;;;;1.47;1.20;;;18.30;99.90;;;;;;4901100;29;20464;-81
2021/10/13 11:06:40;;;;;;;2.07;0.90;;;18.00;99.90;;;;;;4921269;29;20450;-81
2021/10/13 11:09:09;;;;;;;1.67;0.90;;;17.90;99.90;;;;;;4912703;29;20981;-83
2021/10/13 11:11:40;;;;;;;0.80;0.80;;;17.70;99.90;;;;;;4917428;29;20812;-83
2021/10/13 11:14:14;;;;;;;2.93;1.43;;;17.60;99.90;;;;;;4917214;29;20491;-82
2021/10/13 11:16:53;;;;;;;1.80;1.10;;;17.50;99.90;;;;;;4931060;29;20459;-82
2021/10/13 11:19:25;;;;;;;1.90;0.70;;;17.30;99.90;;;;;;4914520;29;20520;-81
2021/10/13 11:22:01;;;;;;;1.00;0.93;;;17.20;99.90;;;;;;4910828;29;20471;-82
2021/10/13 11:24:30;;;;;;;0.70;0.70;;;17.10;99.90;;;;;;4910656;29;20485;-82
2021/10/13 11:26:58;;;;;;;3.10;1.00;;;17.10;99.90;;;;;;4916073;29;20478;-85
2021/10/13 11:29:28;;;;;;;1.13;1.00;;;17.00;99.90;;;;;;4921679;29;20466;-80
2021/10/13 11:32:09;;;;;;;2.90;1.00;;;16.90;99.90;;;;;;4912132;29;21156;-80
2021/10/13 11:34:43;;;;;;;0.80;0.80;;;16.70;99.90;;;;;;4912843;29;20523;-82
2021/10/13 11:37:13;;;;;;;1.77;1.20;;;16.60;99.90;;;;;;4914012;29;20455;-79
2021/10/13 11:39:46;;;;;;;1.00;0.90;;;16.50;99.90;;;;;;4913551;29;20473;-79
2021/10/13 11:42:16;;;;;;;0.83;0.70;;;16.50;99.90;;;;;;4915842;29;20449;-79
2021/10/13 11:44:49;;;;;;;0.70;0.70;;;16.50;99.90;;;;;;4915101;29;20492;-79
2021/10/13 11:47:27;;;;;;;0.50;0.50;;;16.60;99.90;;;;;;4915844;29;20623;-79
2021/10/13 11:49:58;;;;;;;0.60;0.60;;;16.80;99.90;;;;;;4907795;29;20469;-79
2021/10/13 11:52:28;;;;;;;1.30;0.50;;;17.00;99.90;;;;;;4916534;29;20457;-80
2021/10/13 11:55:01;;;;;;;1.10;0.60;;;17.10;99.90;;;;;;4927929;29;21004;-79
2021/10/13 11:57:30;;;;;;;0.50;0.50;;;17.20;99.90;;;;;;4910809;29;20464;-79
2021/10/13 12:00:16;;;;;;;0.40;0.40;;;17.30;99.90;;;;;;4913879;29;20457;-79
2021/10/13 12:02:57;;;;;;;1.00;0.50;;;17.30;99.90;;;;;;4913226;29;20536;-78
2021/10/13 12:05:31;;;;;;;0.73;0.40;;;17.30;99.90;;;;;;4907063;29;20485;-80
2021/10/13 12:08:07;;;;;;;1.33;0.43;;;17.20;99.90;;;;;;4910655;29;20469;-79
2021/10/13 12:10:38;;;;;;;0.77;0.50;;;17.20;99.90;;;;;;4913371;29;21132;-79
2021/10/13 12:13:07;;;;;;;0.70;0.50;;;17.20;99.90;;;;;;4912094;29;20976;-79
2021/10/13 12:15:36;;;;;;;0.40;0.40;;;17.10;99.90;;;;;;4909586;29;20580;-79
2021/10/13 12:18:12;;;;;;;0.40;0.40;;;17.00;99.90;;;;;;4908962;29;20460;-80
2021/10/13 12:20:41;;;;;;;0.50;0.50;;;16.90;99.90;;;;;;4910644;29;20469;-79
2021/10/13 12:23:13;;;;;;;0.63;0.43;;;16.80;99.90;;;;;;4925339;29;20468;-81
2021/10/13 12:25:41;;;;;;;0.40;0.40;;;16.80;99.90;;;;;;4914201;29;20567;-78
2021/10/13 12:28:20;;;;;;;0.80;0.60;;;16.80;99.90;;;;;;4914995;29;20468;-81
2021/10/13 12:30:58;;;;;;;0.90;0.70;;;17.00;99.90;;;;;;4909379;29;20461;-79
2021/10/13 12:33:26;;;;;;;0.60;0.60;;;17.10;99.90;;;;;;4898416;29;20876;-80
2021/10/13 12:36:10;;;;;;;1.53;0.70;;;17.10;99.90;;;;;;4907251;29;20496;-80
2021/10/13 12:38:45;;;;;;;1.43;0.60;;;17.10;99.90;;;;;;4914702;29;20464;-81
2021/10/13 12:41:13;;;;;;;0.70;0.70;;;17.10;99.90;;;;;;4911028;29;20466;-80
2021/10/13 12:43:43;;;;;;;1.13;0.50;;;16.90;99.90;;;;;;4915514;29;20452;-80
2021/10/13 12:46:27;;;;;;;1.77;0.60;;;16.90;99.90;;;;;;4914019;29;20838;-81
2021/10/13 12:48:56;;;;;;;0.70;0.70;;;16.90;99.90;;;;;;4915548;29;20518;-80
2021/10/13 12:51:50;;;;;;;2.53;0.70;;;17.00;99.90;;;;;;4903402;29;20564;-80
2021/10/13 12:54:20;;;;;;;0.73;0.53;;;17.10;99.90;;;;;;4909948;29;20491;-80
2021/10/13 12:56:48;;;;;;;0.70;0.70;;;17.10;99.90;;;;;;4911002;29;21166;-79
2021/10/13 12:59:21;;;;;;;2.00;0.70;;;17.10;99.90;;;;;;4914718;29;20457;-79
2021/10/13 13:01:50;;;;;;;3.33;0.77;;;17.10;99.90;;;;;;4913841;29;20991;-79
2021/10/13 13:04:19;;;;;;;3.20;0.73;;;17.20;99.90;;;;;;4914245;29;20887;-80
2021/10/13 13:06:48;;;;;;;0.83;0.70;;;17.20;99.90;;;;;;4915445;29;20460;-80